createdAt,value
2016-09-03T00:00:31.873Z,17.73
2016-09-03T00:01:32.591Z,17.63
2016-09-03T00:02:32.623Z,17.69
2016-09-03T00:03:33.371Z,17.6
2016-09-03T00:04:32.663Z,17.53
2016-09-03T00:05:32.711Z,17.65
2016-09-03T00:06:32.024Z,17.6
2016-09-03T00:07:32.843Z,17.56
2016-09-03T00:08:32.774Z,17.63
2016-09-03T00:09:33.534Z,17.52
2016-09-03T00:10:32.823Z,17.53
2016-09-03T00:11:32.921Z,17.59
2016-09-03T00:12:33.573Z,17.54
2016-09-03T00:13:33.647Z,17.65
2016-09-03T00:14:33.626Z,17.59
2016-09-03T00:15:32.225Z,17.6
2016-09-03T00:16:33.662Z,17.63
2016-09-03T00:17:33.703Z,17.59
2016-09-03T00:18:33.703Z,17.57
2016-09-03T00:19:33.024Z,17.54
2016-09-03T00:20:33.053Z,17.59
2016-09-03T00:21:33.084Z,17.57
2016-09-03T00:22:33.124Z,17.57
2016-09-03T00:23:33.107Z,17.57
2016-09-03T00:24:33.214Z,17.57
2016-09-03T00:25:33.183Z,17.52
2016-09-03T00:26:33.264Z,17.63
2016-09-03T00:27:33.219Z,17.6
2016-09-03T00:28:32.543Z,17.59
2016-09-03T00:29:33.333Z,17.68
2016-09-03T00:30:32.578Z,17.76
2016-09-03T00:31:33.322Z,17.65
2016-09-03T00:32:33.355Z,17.75
2016-09-03T00:33:33.366Z,17.75
2016-09-03T00:34:33.380Z,17.73
2016-09-03T00:35:33.492Z,17.72
2016-09-03T00:36:33.433Z,17.65
2016-09-03T00:37:34.163Z,17.71
2016-09-03T00:38:33.484Z,17.52
2016-09-03T00:39:34.219Z,17.59
2016-09-03T00:40:33.526Z,17.59
2016-09-03T00:41:33.554Z,17.54
2016-09-03T00:42:33.693Z,17.57
2016-09-03T00:43:32.910Z,17.57
2016-09-03T00:44:32.934Z,17.57
2016-09-03T00:45:34.344Z,17.66
2016-09-03T00:46:33.722Z,17.52
2016-09-03T00:47:33.695Z,17.39
2016-09-03T00:48:33.723Z,17.44
2016-09-03T00:49:34.465Z,17.41
2016-09-03T00:50:34.481Z,17.38
2016-09-03T00:51:33.785Z,17.49
2016-09-03T00:52:33.815Z,17.59
2016-09-03T00:53:34.535Z,17.53
2016-09-03T00:54:34.570Z,17.6
2016-09-03T00:55:33.982Z,17.59
2016-09-03T00:56:33.904Z,17.52
2016-09-03T00:57:33.977Z,17.39
2016-09-03T00:58:34.664Z,17.35
2016-09-03T00:59:33.273Z,17.31
2016-09-03T01:00:34.027Z,17.13
2016-09-03T01:01:34.027Z,17.14
2016-09-03T01:02:34.054Z,17.01
2016-09-03T01:03:34.066Z,16.95
2016-09-03T01:04:33.566Z,16.86
2016-09-03T01:05:34.853Z,16.87
2016-09-03T01:06:34.261Z,16.83
2016-09-03T01:07:34.240Z,16.74
2016-09-03T01:08:34.901Z,16.73
2016-09-03T01:09:33.490Z,16.64
2016-09-03T01:10:34.955Z,16.65
2016-09-03T01:11:34.973Z,16.62
2016-09-03T01:12:35.012Z,16.55
2016-09-03T01:13:33.591Z,16.44
2016-09-03T01:14:33.615Z,16.43
2016-09-03T01:15:33.654Z,16.46
2016-09-03T01:16:35.085Z,16.41
2016-09-03T01:17:34.466Z,16.36
2016-09-03T01:18:34.425Z,16.29
2016-09-03T01:19:34.450Z,16.24
2016-09-03T01:20:34.472Z,16.21
2016-09-03T01:21:34.473Z,16.13
2016-09-03T01:22:34.510Z,16.21
2016-09-03T01:23:35.392Z,16.06
2016-09-03T01:24:35.293Z,15.96
2016-09-03T01:25:35.403Z,15.92
2016-09-03T01:26:35.335Z,15.94
2016-09-03T01:27:34.643Z,15.9
2016-09-03T01:28:35.363Z,15.83
2016-09-03T01:29:35.444Z,15.87
2016-09-03T01:30:34.845Z,15.8
2016-09-03T01:31:34.015Z,15.83
2016-09-03T01:32:34.733Z,15.9
2016-09-03T01:33:34.764Z,15.88
2016-09-03T01:34:34.811Z,15.81
2016-09-03T01:35:34.803Z,15.88
2016-09-03T01:36:34.854Z,16
2016-09-03T01:37:34.872Z,15.96
2016-09-03T01:38:34.883Z,15.98
2016-09-03T01:39:34.910Z,15.92
2016-09-03T01:40:35.618Z,16.02
2016-09-03T01:41:35.646Z,15.92
2016-09-03T01:42:34.272Z,16.06
2016-09-03T01:43:35.817Z,15.98
2016-09-03T01:44:34.321Z,15.96
2016-09-03T01:45:35.033Z,15.98
2016-09-03T01:46:35.062Z,15.98
2016-09-03T01:47:34.384Z,16
2016-09-03T01:48:35.821Z,15.99
2016-09-03T01:49:35.144Z,16.02
2016-09-03T01:50:35.163Z,15.96
2016-09-03T01:51:35.895Z,15.92
2016-09-03T01:52:35.262Z,15.84
2016-09-03T01:53:35.213Z,15.84
2016-09-03T01:54:35.343Z,15.87
2016-09-03T01:55:35.255Z,15.87
2016-09-03T01:56:35.343Z,15.8
2016-09-03T01:57:34.614Z,15.87
2016-09-03T01:58:36.035Z,15.84
2016-09-03T01:59:36.051Z,15.78
2016-09-03T02:00:35.372Z,15.76
2016-09-03T02:01:36.120Z,15.87
2016-09-03T02:02:36.132Z,15.85
2016-09-03T02:03:35.459Z,15.96
2016-09-03T02:04:35.462Z,15.96
2016-09-03T02:05:34.872Z,15.92
2016-09-03T02:06:36.222Z,15.94
2016-09-03T02:07:35.548Z,16
2016-09-03T02:08:36.253Z,16
2016-09-03T02:09:36.387Z,15.92
2016-09-03T02:10:35.005Z,15.98
2016-09-03T02:11:35.622Z,15.92
2016-09-03T02:12:35.033Z,15.94
2016-09-03T02:13:34.974Z,16.05
2016-09-03T02:14:36.382Z,16
2016-09-03T02:15:35.722Z,15.96
2016-09-03T02:16:36.556Z,15.92
2016-09-03T02:17:35.752Z,15.98
2016-09-03T02:18:36.523Z,16.05
2016-09-03T02:19:36.520Z,15.9
2016-09-03T02:20:36.535Z,15.96
2016-09-03T02:21:35.849Z,15.96
2016-09-03T02:22:35.877Z,16.05
2016-09-03T02:23:36.005Z,16.12
2016-09-03T02:24:36.735Z,16.21
2016-09-03T02:25:35.972Z,16.22
2016-09-03T02:26:35.958Z,16.24
2016-09-03T02:27:35.979Z,16.29
2016-09-03T02:28:36.707Z,16.32
2016-09-03T02:29:35.561Z,16.47
2016-09-03T02:30:36.053Z,16.4
2016-09-03T02:31:36.079Z,16.44
2016-09-03T02:32:35.395Z,16.41
2016-09-03T02:33:36.111Z,16.46
2016-09-03T02:34:36.181Z,16.43
2016-09-03T02:35:36.867Z,16.44
2016-09-03T02:36:36.201Z,16.39
2016-09-03T02:37:36.912Z,16.49
2016-09-03T02:38:35.531Z,16.43
2016-09-03T02:39:36.250Z,16.44
2016-09-03T02:40:36.997Z,16.4
2016-09-03T02:41:36.292Z,16.41
2016-09-03T02:42:35.692Z,16.41
2016-09-03T02:43:35.637Z,16.39
2016-09-03T02:44:35.669Z,16.4
2016-09-03T02:45:35.694Z,16.34
2016-09-03T02:46:37.109Z,16.31
2016-09-03T02:47:37.122Z,16.36
2016-09-03T02:48:36.462Z,16.32
2016-09-03T02:49:36.475Z,16.31
2016-09-03T02:50:36.495Z,16.26
2016-09-03T02:51:35.813Z,16.29
2016-09-03T02:52:36.564Z,16.4
2016-09-03T02:53:36.573Z,16.46
2016-09-03T02:54:36.602Z,16.37
2016-09-03T02:55:35.911Z,16.46
2016-09-03T02:56:35.921Z,16.5
2016-09-03T02:57:36.677Z,16.49
2016-09-03T02:58:37.413Z,16.49
2016-09-03T02:59:35.998Z,16.5
2016-09-03T03:00:36.022Z,16.41
2016-09-03T03:01:36.043Z,16.5
2016-09-03T03:02:36.775Z,16.43
2016-09-03T03:03:36.803Z,16.44
2016-09-03T03:04:37.544Z,16.43
2016-09-03T03:05:36.924Z,16.49
2016-09-03T03:06:37.631Z,16.46
2016-09-03T03:07:36.898Z,16.5
2016-09-03T03:08:37.631Z,16.39
2016-09-03T03:09:36.920Z,16.44
2016-09-03T03:10:37.669Z,16.43
2016-09-03T03:11:37.681Z,16.39
2016-09-03T03:12:36.993Z,16.41
2016-09-03T03:13:36.310Z,16.43
2016-09-03T03:14:37.042Z,16.37
2016-09-03T03:15:37.799Z,16.36
2016-09-03T03:16:37.113Z,16.4
2016-09-03T03:17:37.200Z,16.28
2016-09-03T03:18:37.861Z,16.28
2016-09-03T03:19:36.452Z,16.26
2016-09-03T03:20:37.187Z,16.26
2016-09-03T03:21:36.511Z,16.22
2016-09-03T03:22:36.524Z,16.16
2016-09-03T03:23:37.284Z,16.17
2016-09-03T03:24:37.294Z,16.09
2016-09-03T03:25:38.003Z,16.08
2016-09-03T03:26:37.314Z,16.05
2016-09-03T03:27:37.353Z,16.05
2016-09-03T03:28:36.655Z,16.02
2016-09-03T03:29:37.434Z,15.98
2016-09-03T03:30:37.435Z,15.98
2016-09-03T03:31:37.453Z,15.94
2016-09-03T03:32:37.625Z,15.94
2016-09-03T03:33:38.181Z,16.06
2016-09-03T03:34:37.499Z,16.06
2016-09-03T03:35:37.654Z,16.05
2016-09-03T03:36:37.559Z,16.1
2016-09-03T03:37:36.912Z,16.16
2016-09-03T03:38:37.586Z,16.21
2016-09-03T03:39:37.664Z,16.21
2016-09-03T03:40:38.346Z,16.16
2016-09-03T03:41:37.652Z,16.21
2016-09-03T03:42:38.393Z,16.34
2016-09-03T03:43:38.411Z,16.26
2016-09-03T03:44:38.452Z,16.31
2016-09-03T03:45:38.454Z,16.28
2016-09-03T03:46:37.770Z,16.32
2016-09-03T03:47:37.809Z,16.29
2016-09-03T03:48:38.540Z,16.29
2016-09-03T03:49:37.851Z,16.25
2016-09-03T03:50:38.572Z,16.25
2016-09-03T03:51:37.903Z,16.28
2016-09-03T03:52:38.013Z,16.31
2016-09-03T03:53:38.654Z,16.31
2016-09-03T03:54:38.667Z,16.32
2016-09-03T03:55:37.312Z,16.29
2016-09-03T03:56:38.012Z,16.24
2016-09-03T03:57:38.744Z,16.28
2016-09-03T03:58:38.046Z,16.24
2016-09-03T03:59:38.173Z,16.39
2016-09-03T04:00:38.098Z,16.37
2016-09-03T04:01:37.505Z,16.41
2016-09-03T04:02:38.133Z,16.43
2016-09-03T04:03:37.518Z,16.39
2016-09-03T04:04:38.173Z,16.46
2016-09-03T04:05:38.204Z,16.44
2016-09-03T04:06:38.926Z,16.44
2016-09-03T04:07:38.255Z,16.43
2016-09-03T04:08:37.585Z,16.46
2016-09-03T04:09:39.162Z,16.5
2016-09-03T04:10:39.194Z,16.5
2016-09-03T04:11:39.203Z,16.57
2016-09-03T04:12:38.364Z,16.55
2016-09-03T04:13:37.685Z,16.59
2016-09-03T04:14:38.415Z,16.61
2016-09-03T04:15:39.151Z,16.61
2016-09-03T04:16:39.213Z,16.59
2016-09-03T04:17:38.485Z,16.65
2016-09-03T04:18:38.582Z,16.68
2016-09-03T04:19:38.583Z,16.65
2016-09-03T04:20:38.552Z,16.68
2016-09-03T04:21:39.283Z,16.66
2016-09-03T04:22:38.591Z,16.68
2016-09-03T04:23:38.619Z,16.74
2016-09-03T04:24:39.353Z,16.79
2016-09-03T04:25:38.677Z,16.73
2016-09-03T04:26:38.686Z,16.82
2016-09-03T04:27:38.710Z,16.72
2016-09-03T04:28:38.726Z,16.84
2016-09-03T04:29:39.523Z,16.79
2016-09-03T04:30:38.784Z,16.82
2016-09-03T04:31:38.798Z,16.82
2016-09-03T04:32:38.833Z,16.76
2016-09-03T04:33:38.833Z,16.74
2016-09-03T04:34:39.575Z,16.8
2016-09-03T04:35:38.893Z,16.84
2016-09-03T04:36:38.225Z,16.86
2016-09-03T04:37:38.946Z,16.8
2016-09-03T04:38:39.054Z,16.83
2016-09-03T04:39:38.980Z,16.83
2016-09-03T04:40:39.723Z,16.84
2016-09-03T04:41:39.740Z,16.86
2016-09-03T04:42:39.054Z,16.84
2016-09-03T04:43:38.444Z,16.94
2016-09-03T04:44:38.407Z,16.84
2016-09-03T04:45:39.822Z,16.84
2016-09-03T04:46:38.448Z,16.89
2016-09-03T04:47:38.453Z,16.97
2016-09-03T04:48:39.561Z,16.83
2016-09-03T04:49:39.222Z,16.87
2016-09-03T04:50:38.535Z,16.97
2016-09-03T04:51:40.063Z,16.98
2016-09-03T04:52:39.985Z,16.92
2016-09-03T04:53:38.742Z,17.02
2016-09-03T04:54:38.925Z,17.04
2016-09-03T04:55:38.752Z,17.05
2016-09-03T04:56:39.397Z,17.07
2016-09-03T04:57:40.103Z,17.04
2016-09-03T04:58:39.544Z,17.09
2016-09-03T04:59:39.444Z,17.09
2016-09-03T05:00:40.194Z,17.05
2016-09-03T05:01:38.791Z,17.02
2016-09-03T05:02:39.515Z,17.09
2016-09-03T05:03:39.546Z,17.05
2016-09-03T05:04:39.563Z,17.14
2016-09-03T05:05:38.935Z,17.13
2016-09-03T05:06:39.604Z,17.2
2016-09-03T05:07:39.654Z,17.12
2016-09-03T05:08:40.354Z,17.19
2016-09-03T05:09:40.375Z,17.2
2016-09-03T05:10:39.716Z,17.17
2016-09-03T05:11:40.496Z,17.28
2016-09-03T05:12:39.029Z,17.23
2016-09-03T05:13:40.520Z,17.27
2016-09-03T05:14:40.512Z,17.3
2016-09-03T05:15:39.833Z,17.31
2016-09-03T05:16:40.546Z,17.34
2016-09-03T05:17:40.561Z,17.46
2016-09-03T05:18:40.598Z,17.39
2016-09-03T05:19:39.910Z,17.5
2016-09-03T05:20:40.643Z,17.41
2016-09-03T05:21:39.953Z,17.53
2016-09-03T05:22:40.680Z,17.39
2016-09-03T05:23:39.294Z,17.41
2016-09-03T05:24:40.064Z,17.39
2016-09-03T05:25:40.744Z,17.39
2016-09-03T05:26:40.066Z,17.44
2016-09-03T05:27:40.796Z,17.42
2016-09-03T05:28:40.106Z,17.37
2016-09-03T05:29:40.891Z,17.34
2016-09-03T05:30:39.470Z,17.34
2016-09-03T05:31:40.915Z,17.41
2016-09-03T05:32:40.914Z,17.41
2016-09-03T05:33:40.314Z,17.38
2016-09-03T05:34:40.956Z,17.3
2016-09-03T05:35:40.276Z,17.31
2016-09-03T05:36:41.005Z,17.34
2016-09-03T05:37:39.619Z,17.37
2016-09-03T05:38:41.041Z,17.39
2016-09-03T05:39:39.755Z,17.47
2016-09-03T05:40:41.094Z,17.53
2016-09-03T05:41:39.708Z,17.6
2016-09-03T05:42:41.158Z,17.73
2016-09-03T05:43:40.466Z,17.75
2016-09-03T05:44:40.502Z,17.86
2016-09-03T05:45:41.234Z,17.87
2016-09-03T05:46:41.235Z,17.75
2016-09-03T05:47:39.854Z,17.87
2016-09-03T05:48:41.286Z,17.78
2016-09-03T05:49:41.312Z,17.8
2016-09-03T05:50:40.634Z,17.94
2016-09-03T05:51:41.360Z,17.97
2016-09-03T05:52:41.378Z,17.95
2016-09-03T05:53:41.401Z,17.91
2016-09-03T05:54:40.730Z,18
2016-09-03T05:55:40.769Z,18.02
2016-09-03T05:56:41.505Z,18.18
2016-09-03T05:57:40.946Z,18.37
2016-09-03T05:58:41.526Z,18.63
2016-09-03T05:59:40.957Z,18.81
2016-09-03T06:00:40.871Z,18.88
2016-09-03T06:01:40.903Z,18.89
2016-09-03T06:02:40.917Z,18.88
2016-09-03T06:03:40.938Z,18.96
2016-09-03T06:04:40.263Z,18.89
2016-09-03T06:05:40.990Z,18.89
2016-09-03T06:06:41.719Z,18.92
2016-09-03T06:07:40.330Z,18.82
2016-09-03T06:08:41.828Z,18.83
2016-09-03T06:09:41.797Z,18.78
2016-09-03T06:10:41.118Z,18.82
2016-09-03T06:11:41.133Z,18.81
2016-09-03T06:12:41.149Z,18.82
2016-09-03T06:13:41.901Z,18.79
2016-09-03T06:14:41.214Z,18.73
2016-09-03T06:15:41.910Z,18.71
2016-09-03T06:16:41.244Z,18.68
2016-09-03T06:17:41.362Z,18.68
2016-09-03T06:18:42.015Z,18.7
2016-09-03T06:19:40.621Z,18.66
2016-09-03T06:20:41.353Z,18.68
2016-09-03T06:21:41.435Z,18.7
2016-09-03T06:22:40.754Z,18.71
2016-09-03T06:23:41.523Z,18.73
2016-09-03T06:24:41.516Z,18.71
2016-09-03T06:25:40.769Z,18.7
2016-09-03T06:26:42.208Z,18.68
2016-09-03T06:27:41.514Z,18.81
2016-09-03T06:28:41.530Z,18.79
2016-09-03T06:29:42.282Z,18.76
2016-09-03T06:30:41.610Z,18.79
2016-09-03T06:31:41.607Z,18.71
2016-09-03T06:32:40.935Z,18.74
2016-09-03T06:33:42.404Z,18.78
2016-09-03T06:34:41.733Z,18.79
2016-09-03T06:35:42.413Z,18.89
2016-09-03T06:36:42.451Z,18.89
2016-09-03T06:37:42.472Z,19
2016-09-03T06:38:42.495Z,19.09
2016-09-03T06:39:42.518Z,19.26
2016-09-03T06:40:41.134Z,19.44
2016-09-03T06:41:41.996Z,19.45
2016-09-03T06:42:42.599Z,19.55
2016-09-03T06:43:41.303Z,19.64
2016-09-03T06:44:41.945Z,19.79
2016-09-03T06:45:42.699Z,19.84
2016-09-03T06:46:41.979Z,19.97
2016-09-03T06:47:42.790Z,20.11
2016-09-03T06:48:42.244Z,20.18
2016-09-03T06:49:42.210Z,20.32
2016-09-03T06:50:43.171Z,20.32
2016-09-03T06:51:42.921Z,20.53
2016-09-03T06:52:42.401Z,20.6
2016-09-03T06:53:43.005Z,20.73
2016-09-03T06:54:43.174Z,20.77
2016-09-03T06:55:42.294Z,20.9
2016-09-03T06:56:43.144Z,21.08
2016-09-03T06:57:43.004Z,21.29
2016-09-03T06:58:43.432Z,21.66
2016-09-03T06:59:43.011Z,22.04
2016-09-03T07:00:43.179Z,22.16
2016-09-03T07:01:43.084Z,22.3
2016-09-03T07:02:43.084Z,22.15
2016-09-03T07:03:42.410Z,22.06
2016-09-03T07:04:43.180Z,21.97
2016-09-03T07:05:43.248Z,21.69
2016-09-03T07:06:43.194Z,21.56
2016-09-03T07:07:41.869Z,21.38
2016-09-03T07:08:43.240Z,21.33
2016-09-03T07:09:41.876Z,21.25
2016-09-03T07:10:42.581Z,21.22
2016-09-03T07:11:43.308Z,21.13
2016-09-03T07:12:42.641Z,21.19
2016-09-03T07:13:42.052Z,21.17
2016-09-03T07:14:43.401Z,21.15
2016-09-03T07:15:43.438Z,21.13
2016-09-03T07:16:42.759Z,21.11
2016-09-03T07:17:42.051Z,21
2016-09-03T07:18:43.554Z,20.88
2016-09-03T07:19:43.532Z,20.86
2016-09-03T07:20:42.867Z,20.82
2016-09-03T07:21:43.585Z,20.82
2016-09-03T07:22:43.659Z,20.78
2016-09-03T07:23:43.642Z,20.88
2016-09-03T07:24:43.678Z,20.78
2016-09-03T07:25:42.264Z,20.92
2016-09-03T07:26:43.083Z,20.82
2016-09-03T07:27:43.044Z,20.9
2016-09-03T07:28:43.773Z,20.86
2016-09-03T07:29:43.954Z,20.95
2016-09-03T07:30:43.121Z,20.95
2016-09-03T07:31:43.121Z,20.93
2016-09-03T07:32:43.194Z,20.89
2016-09-03T07:33:43.903Z,20.92
2016-09-03T07:34:43.927Z,20.92
2016-09-03T07:35:42.547Z,20.88
2016-09-03T07:36:43.975Z,20.86
2016-09-03T07:37:43.298Z,20.74
2016-09-03T07:38:43.331Z,20.64
2016-09-03T07:39:43.352Z,20.55
2016-09-03T07:40:43.473Z,20.46
2016-09-03T07:41:44.107Z,20.48
2016-09-03T07:42:44.154Z,20.33
2016-09-03T07:43:44.150Z,20.27
2016-09-03T07:44:43.472Z,20.22
2016-09-03T07:45:44.227Z,20.22
2016-09-03T07:46:44.233Z,20.12
2016-09-03T07:47:43.560Z,20.11
2016-09-03T07:48:44.288Z,20
2016-09-03T07:49:44.319Z,19.93
2016-09-03T07:50:43.631Z,19.92
2016-09-03T07:51:43.713Z,20.1
2016-09-03T07:52:43.713Z,20.15
2016-09-03T07:53:43.703Z,20.42
2016-09-03T07:54:44.434Z,20.74
2016-09-03T07:55:43.745Z,20.93
2016-09-03T07:56:43.772Z,21.26
2016-09-03T07:57:43.802Z,21.5
2016-09-03T07:58:44.549Z,21.83
2016-09-03T07:59:44.570Z,22.07
2016-09-03T08:00:43.945Z,22.31
2016-09-03T08:01:44.624Z,22.52
2016-09-03T08:02:44.642Z,22.63
2016-09-03T08:03:43.972Z,22.67
2016-09-03T08:04:44.716Z,22.91
2016-09-03T08:05:44.717Z,23.06
2016-09-03T08:06:43.335Z,23.14
2016-09-03T08:07:44.073Z,23.14
2016-09-03T08:08:44.801Z,23.07
2016-09-03T08:09:43.435Z,22.77
2016-09-03T08:10:44.164Z,22.74
2016-09-03T08:11:44.224Z,22.47
2016-09-03T08:12:44.914Z,22.41
2016-09-03T08:13:44.942Z,22.26
2016-09-03T08:14:44.960Z,22.21
2016-09-03T08:15:44.290Z,22.06
2016-09-03T08:16:45.011Z,22.03
2016-09-03T08:17:44.334Z,21.92
2016-09-03T08:18:45.213Z,21.72
2016-09-03T08:19:45.093Z,21.66
2016-09-03T08:20:43.763Z,21.51
2016-09-03T08:21:45.162Z,21.59
2016-09-03T08:22:45.192Z,21.44
2016-09-03T08:23:45.212Z,21.29
2016-09-03T08:24:45.333Z,21.14
2016-09-03T08:25:45.253Z,21.07
2016-09-03T08:26:43.867Z,20.92
2016-09-03T08:27:44.647Z,20.85
2016-09-03T08:28:45.353Z,20.78
2016-09-03T08:29:45.379Z,20.55
2016-09-03T08:30:44.680Z,20.46
2016-09-03T08:31:44.789Z,20.33
2016-09-03T08:32:45.452Z,20.32
2016-09-03T08:33:45.464Z,20.19
2016-09-03T08:34:45.493Z,20.24
2016-09-03T08:35:45.512Z,20.32
2016-09-03T08:36:45.548Z,20.34
2016-09-03T08:37:44.162Z,20.29
2016-09-03T08:38:45.595Z,20.33
2016-09-03T08:39:45.622Z,20.22
2016-09-03T08:40:45.656Z,20.18
2016-09-03T08:41:45.673Z,20.17
2016-09-03T08:42:44.993Z,20.11
2016-09-03T08:43:45.724Z,19.99
2016-09-03T08:44:44.354Z,19.82
2016-09-03T08:45:45.783Z,19.78
2016-09-03T08:46:45.792Z,19.7
2016-09-03T08:47:44.428Z,19.64
2016-09-03T08:48:45.841Z,19.56
2016-09-03T08:49:45.878Z,19.59
2016-09-03T08:50:45.892Z,19.37
2016-09-03T08:51:45.373Z,19.38
2016-09-03T08:52:45.243Z,19.2
2016-09-03T08:53:46.053Z,19.22
2016-09-03T08:54:46.013Z,19.26
2016-09-03T08:55:45.425Z,19.22
2016-09-03T08:56:45.353Z,19.22
2016-09-03T08:57:46.074Z,19.16
2016-09-03T08:58:46.108Z,19.23
2016-09-03T08:59:46.148Z,19.29
2016-09-03T09:00:46.175Z,19.32
2016-09-03T09:01:46.179Z,19.32
2016-09-03T09:02:44.791Z,19.38
2016-09-03T09:03:46.229Z,19.37
2016-09-03T09:04:45.556Z,19.3
2016-09-03T09:05:46.285Z,19.29
2016-09-03T09:06:45.602Z,19.44
2016-09-03T09:07:45.624Z,19.39
2016-09-03T09:08:45.664Z,19.38
2016-09-03T09:09:45.772Z,19.3
2016-09-03T09:10:45.700Z,19.24
2016-09-03T09:11:46.441Z,19.24
2016-09-03T09:12:46.475Z,19.22
2016-09-03T09:13:46.492Z,19.32
2016-09-03T09:14:46.522Z,19.3
2016-09-03T09:15:45.857Z,19.41
2016-09-03T09:16:45.848Z,19.56
2016-09-03T09:17:45.874Z,19.63
2016-09-03T09:18:46.620Z,19.62
2016-09-03T09:19:45.214Z,19.7
2016-09-03T09:20:46.660Z,19.66
2016-09-03T09:21:45.985Z,19.64
2016-09-03T09:22:46.701Z,19.56
2016-09-03T09:23:46.045Z,19.45
2016-09-03T09:24:46.065Z,19.42
2016-09-03T09:25:46.075Z,19.37
2016-09-03T09:26:45.404Z,19.49
2016-09-03T09:27:46.841Z,19.59
2016-09-03T09:28:46.152Z,19.49
2016-09-03T09:29:46.265Z,19.55
2016-09-03T09:30:47.015Z,19.57
2016-09-03T09:31:46.247Z,19.62
2016-09-03T09:32:46.261Z,19.63
2016-09-03T09:33:45.594Z,19.79
2016-09-03T09:34:46.321Z,19.85
2016-09-03T09:35:47.035Z,19.87
2016-09-03T09:36:46.354Z,19.82
2016-09-03T09:37:46.446Z,19.93
2016-09-03T09:38:47.115Z,20.07
2016-09-03T09:39:46.424Z,20.03
2016-09-03T09:40:46.465Z,20.08
2016-09-03T09:41:46.482Z,20.11
2016-09-03T09:42:46.506Z,20.3
2016-09-03T09:43:45.819Z,20.49
2016-09-03T09:44:47.265Z,20.59
2016-09-03T09:45:47.304Z,20.77
2016-09-03T09:46:46.602Z,20.77
2016-09-03T09:47:46.645Z,20.82
2016-09-03T09:48:46.648Z,20.9
2016-09-03T09:49:47.395Z,20.89
2016-09-03T09:50:46.705Z,20.93
2016-09-03T09:51:46.731Z,21.11
2016-09-03T09:52:47.561Z,21.25
2016-09-03T09:53:47.494Z,21.3
2016-09-03T09:54:47.574Z,21.4
2016-09-03T09:55:46.946Z,21.51
2016-09-03T09:56:46.866Z,21.66
2016-09-03T09:57:46.895Z,22
2016-09-03T09:58:46.206Z,22.04
2016-09-03T09:59:46.942Z,22
2016-09-03T10:00:47.694Z,21.97
2016-09-03T10:01:46.289Z,22
2016-09-03T10:02:46.305Z,21.84
2016-09-03T10:03:47.103Z,22.01
2016-09-03T10:04:46.385Z,22.21
2016-09-03T10:05:47.805Z,22.41
2016-09-03T10:06:47.200Z,22.65
2016-09-03T10:07:47.164Z,22.8
2016-09-03T10:08:47.912Z,22.93
2016-09-03T10:09:47.947Z,22.98
2016-09-03T10:10:47.306Z,23.08
2016-09-03T10:11:47.983Z,23.26
2016-09-03T10:12:47.346Z,23.45
2016-09-03T10:13:46.616Z,23.77
2016-09-03T10:14:48.044Z,23.86
2016-09-03T10:15:47.373Z,23.88
2016-09-03T10:16:46.683Z,23.91
2016-09-03T10:17:46.727Z,23.96
2016-09-03T10:18:48.273Z,24.18
2016-09-03T10:19:47.533Z,24.36
2016-09-03T10:20:47.519Z,24.36
2016-09-03T10:21:47.634Z,24.37
2016-09-03T10:22:47.561Z,24.58
2016-09-03T10:23:48.344Z,24.66
2016-09-03T10:24:48.359Z,24.68
2016-09-03T10:25:47.653Z,24.63
2016-09-03T10:26:47.755Z,24.63
2016-09-03T10:27:48.405Z,24.59
2016-09-03T10:28:48.483Z,24.55
2016-09-03T10:29:47.793Z,24.65
2016-09-03T10:30:48.485Z,24.69
2016-09-03T10:31:47.832Z,24.75
2016-09-03T10:32:47.149Z,24.58
2016-09-03T10:33:47.862Z,24.58
2016-09-03T10:34:48.593Z,24.38
2016-09-03T10:35:47.926Z,24.26
2016-09-03T10:36:48.656Z,24.22
2016-09-03T10:37:48.692Z,24.21
2016-09-03T10:38:47.294Z,24.32
2016-09-03T10:39:48.733Z,24.37
2016-09-03T10:40:47.356Z,24.44
2016-09-03T10:41:48.094Z,24.43
2016-09-03T10:42:48.833Z,24.38
2016-09-03T10:43:48.147Z,24.36
2016-09-03T10:44:48.178Z,24.24
2016-09-03T10:45:48.920Z,24.01
2016-09-03T10:46:48.944Z,23.95
2016-09-03T10:47:47.539Z,23.85
2016-09-03T10:48:48.587Z,23.63
2016-09-03T10:49:47.595Z,23.44
2016-09-03T10:50:48.498Z,23.23
2016-09-03T10:51:49.066Z,23.25
2016-09-03T10:52:49.108Z,23.26
2016-09-03T10:53:48.426Z,23.28
2016-09-03T10:54:49.164Z,23.4
2016-09-03T10:55:49.176Z,23.52
2016-09-03T10:56:48.503Z,23.67
2016-09-03T10:57:48.576Z,23.76
2016-09-03T10:58:48.550Z,23.79
2016-09-03T10:59:47.903Z,24
2016-09-03T11:00:48.604Z,24.24
2016-09-03T11:01:48.635Z,24.56
2016-09-03T11:02:49.392Z,24.94
2016-09-03T11:03:49.423Z,25.15
2016-09-03T11:04:48.027Z,25.22
2016-09-03T11:05:48.745Z,25.18
2016-09-03T11:06:49.496Z,24.96
2016-09-03T11:07:48.817Z,24.79
2016-09-03T11:08:49.549Z,24.62
2016-09-03T11:09:49.566Z,24.58
2016-09-03T11:10:48.886Z,24.53
2016-09-03T11:11:49.624Z,24.46
2016-09-03T11:12:48.242Z,24.61
2016-09-03T11:13:49.668Z,24.77
2016-09-03T11:14:49.792Z,25.04
2016-09-03T11:15:49.009Z,25.3
2016-09-03T11:16:49.100Z,25.21
2016-09-03T11:17:49.821Z,25.14
2016-09-03T11:18:49.097Z,25.12
2016-09-03T11:19:49.138Z,25.14
2016-09-03T11:20:48.652Z,24.99
2016-09-03T11:21:49.897Z,24.75
2016-09-03T11:22:48.703Z,24.63
2016-09-03T11:23:49.963Z,24.46
2016-09-03T11:24:49.996Z,24.19
2016-09-03T11:25:49.415Z,24.16
2016-09-03T11:26:49.346Z,23.99
2016-09-03T11:27:48.697Z,23.99
2016-09-03T11:28:49.392Z,23.79
2016-09-03T11:29:48.753Z,23.73
2016-09-03T11:30:50.154Z,23.55
2016-09-03T11:31:49.474Z,23.33
2016-09-03T11:32:49.564Z,23.42
2016-09-03T11:33:49.523Z,23.29
2016-09-03T11:34:48.842Z,23.36
2016-09-03T11:35:50.296Z,23.2
2016-09-03T11:36:49.662Z,23.34
2016-09-03T11:37:50.353Z,23.33
2016-09-03T11:38:50.383Z,23.28
2016-09-03T11:39:50.399Z,23.33
2016-09-03T11:40:50.424Z,23.37
2016-09-03T11:41:50.582Z,23.25
2016-09-03T11:42:50.483Z,23.36
2016-09-03T11:43:49.798Z,23.25
2016-09-03T11:44:50.552Z,23.36
2016-09-03T11:45:50.612Z,23.34
2016-09-03T11:46:49.874Z,23.4
2016-09-03T11:47:50.615Z,23.36
2016-09-03T11:48:49.932Z,23.44
2016-09-03T11:49:50.670Z,23.45
2016-09-03T11:50:50.683Z,23.51
2016-09-03T11:51:50.034Z,23.58
2016-09-03T11:52:50.839Z,23.49
2016-09-03T11:53:50.786Z,23.32
2016-09-03T11:54:50.807Z,23.26
2016-09-03T11:55:50.131Z,23.21
2016-09-03T11:56:50.849Z,23.23
2016-09-03T11:57:50.889Z,23.13
2016-09-03T11:58:50.914Z,23.2
2016-09-03T11:59:50.237Z,23.28
2016-09-03T12:00:50.969Z,23.52
2016-09-03T12:01:50.992Z,23.64
2016-09-03T12:02:50.313Z,23.69
2016-09-03T12:03:51.054Z,23.84
2016-09-03T12:04:51.065Z,23.88
2016-09-03T12:05:51.164Z,23.82
2016-09-03T12:06:51.124Z,23.85
2016-09-03T12:07:51.305Z,23.84
2016-09-03T12:08:51.179Z,23.99
2016-09-03T12:09:51.232Z,23.95
2016-09-03T12:10:51.253Z,24.1
2016-09-03T12:11:51.287Z,24.06
2016-09-03T12:12:50.556Z,24.19
2016-09-03T12:13:51.323Z,24.37
2016-09-03T12:14:51.382Z,24.44
2016-09-03T12:15:51.371Z,24.38
2016-09-03T12:16:51.395Z,24.65
2016-09-03T12:17:50.722Z,24.77
2016-09-03T12:18:51.522Z,25
2016-09-03T12:19:51.509Z,25.11
2016-09-03T12:20:51.502Z,25.29
2016-09-03T12:21:51.534Z,25.33
2016-09-03T12:22:51.566Z,25.36
2016-09-03T12:23:51.593Z,25.39
2016-09-03T12:24:50.912Z,25.29
2016-09-03T12:25:51.957Z,25.06
2016-09-03T12:26:51.839Z,24.79
2016-09-03T12:27:51.401Z,24.65
2016-09-03T12:28:51.026Z,24.66
2016-09-03T12:29:52.009Z,24.75
2016-09-03T12:30:51.888Z,24.99
2016-09-03T12:31:51.326Z,24.88
2016-09-03T12:32:51.841Z,24.94
2016-09-03T12:33:51.930Z,24.89
2016-09-03T12:34:51.891Z,24.78
2016-09-03T12:35:51.923Z,24.78
2016-09-03T12:36:51.944Z,24.71
2016-09-03T12:37:52.003Z,24.58
2016-09-03T12:38:51.379Z,24.37
2016-09-03T12:39:52.035Z,24.22
2016-09-03T12:40:51.397Z,24.16
2016-09-03T12:41:51.389Z,24.1
2016-09-03T12:42:51.402Z,23.99
2016-09-03T12:43:52.131Z,23.95
2016-09-03T12:44:52.159Z,23.94
2016-09-03T12:45:51.482Z,23.94
2016-09-03T12:46:52.204Z,24.04
2016-09-03T12:47:52.264Z,24.14
2016-09-03T12:48:52.298Z,24.22
2016-09-03T12:49:51.599Z,24.25
2016-09-03T12:50:52.332Z,24.36
2016-09-03T12:51:51.655Z,24.47
2016-09-03T12:52:51.670Z,24.62
2016-09-03T12:53:52.422Z,24.69
2016-09-03T12:54:51.740Z,24.71
2016-09-03T12:55:51.756Z,24.74